^^
Station Historical Data
Daily Summary for March 7, 2012 Units:  Metric    English   Both
« Previous Day
Next Day »
Daily Weekly Monthly Yearly Custom
  High: Low: Average:
Temperature: 19.8 °C 11.8 °C 15.7 °C
Dew Point: 12.8 °C 2.6 °C 8.2 °C
Humidity: 81% 51% 61%
Wind Speed: 32.2km/h 4.8km/h 15.9km/h
Wind Gust: 56.3km/h - -
Wind- - SSW
Pressure: 1016.5 hPa 1009.4 hPa -
Precipitation: 0 mm    
Historical Graphs
 
 
Tabular Data for March 7, 2012
Time Temperature Dew Point Pressure Wind Wind Speed Wind Gust Humidity Rainfall Rate (Hourly) solar Conditions
00:09 13.3 °C 4.9 °C 1016.1 hPa South 11.3 km/h 37 km/h 57% 0 mm 0.0 W/m2 CLR
00:19 13.2 °C 4.8 °C 1016.1 hPa SSW 9.7 km/h 24.1 km/h 57% 0 mm 0.0 W/m2 CLR
00:29 13.1 °C 4.7 °C 1016.1 hPa South 8 km/h 24.1 km/h 57% 0 mm 0.0 W/m2 CLR
00:39 12.9 °C 4.6 °C 1016.1 hPa South 9.7 km/h 24.1 km/h 57% 0 mm 0.0 W/m2 CLR
00:49 12.9 °C 4.6 °C 1016.5 hPa South 4.8 km/h 20.9 km/h 57% 0 mm 0.0 W/m2 CLR
00:59 12.8 °C 4.4 °C 1016.5 hPa South 4.8 km/h 32.2 km/h 57% 0 mm 0.0 W/m2 CLR
01:09 12.6 °C 4.3 °C 1016.5 hPa South 11.3 km/h 22.5 km/h 57% 0 mm 0.0 W/m2 CLR
01:19 12.6 °C 4.3 °C 1016.5 hPa SSW 9.7 km/h 25.7 km/h 57% 0 mm 0.0 W/m2 CLR
01:29 12.4 °C 4.2 °C 1016.5 hPa SSW 11.3 km/h 24.1 km/h 57% 0 mm 0.0 W/m2 CLR
01:39 12.2 °C 3.9 °C 1016.5 hPa South 4.8 km/h 22.5 km/h 57% 0 mm 0.0 W/m2 CLR
01:49 12 °C 3.8 °C 1016.5 hPa South 4.8 km/h 17.7 km/h 57% 0 mm 0.0 W/m2 CLR
01:59 11.9 °C 3.7 °C 1016.5 hPa South 9.7 km/h 24.1 km/h 57% 0 mm 0.0 W/m2 CLR
02:09 11.9 °C 3.7 °C 1016.1 hPa South 9.7 km/h 20.9 km/h 57% 0 mm 0.0 W/m2 CLR
02:19 11.9 °C 3.4 °C 1016.1 hPa South 4.8 km/h 22.5 km/h 56% 0 mm 0.0 W/m2 CLR
02:29 12.1 °C 3.3 °C 1016.1 hPa South 4.8 km/h 25.7 km/h 55% 0 mm 0.0 W/m2 CLR
02:39 12.2 °C 3.4 °C 1016.1 hPa South 11.3 km/h 22.5 km/h 55% 0 mm 0.0 W/m2 CLR
02:49 12.3 °C 3.2 °C 1016.1 hPa South 8 km/h 22.5 km/h 54% 0 mm 0.0 W/m2 CLR
02:59 12.4 °C 3.3 °C 1016.1 hPa SSW 4.8 km/h 19.3 km/h 54% 0 mm 0.0 W/m2 CLR
03:09 12.5 °C 3.4 °C 1016.1 hPa South 11.3 km/h 20.9 km/h 54% 0 mm 0.0 W/m2 CLR
03:19 12.6 °C 3.2 °C 1016.1 hPa South 9.7 km/h 29 km/h 53% 0 mm 0.0 W/m2 CLR
03:29 12.7 °C 3.1 °C 1016.1 hPa SSW 11.3 km/h 32.2 km/h 52% 0 mm 0.0 W/m2 CLR
03:39 12.8 °C 3.2 °C 1016.1 hPa South 12.9 km/h 27.4 km/h 52% 0 mm 0.0 W/m2 CLR
03:49 12.8 °C 3.2 °C 1016.1 hPa South 9.7 km/h 33.8 km/h 52% 0 mm 0.0 W/m2 CLR
03:59 12.7 °C 3.1 °C 1016.1 hPa South 11.3 km/h 32.2 km/h 52% 0 mm 0.0 W/m2 CLR
04:09 12.7 °C 3.1 °C 1016.1 hPa South 11.3 km/h 29 km/h 52% 0 mm 0.0 W/m2 CLR
04:19 12.6 °C 2.7 °C 1016.1 hPa South 8 km/h 20.9 km/h 51% 0 mm 0.0 W/m2 CLR
04:29 12.6 °C 2.7 °C 1016.1 hPa South 12.9 km/h 29 km/h 51% 0 mm 0.0 W/m2 CLR
04:39 12.5 °C 2.6 °C 1016.1 hPa SSW 8 km/h 29 km/h 51% 0 mm 0.0 W/m2 CLR
04:49 12.4 °C 2.6 °C 1016.1 hPa South 12.9 km/h 25.7 km/h 51% 0 mm 0.0 W/m2 CLR
04:59 12.5 °C 2.6 °C 1016.1 hPa South 8 km/h 32.2 km/h 51% 0 mm 0.0 W/m2 CLR
05:09 12.6 °C 2.7 °C 1016.1 hPa South 11.3 km/h 35.4 km/h 51% 0 mm 0.0 W/m2 CLR
05:19 12.7 °C 2.8 °C 1016.1 hPa South 11.3 km/h 22.5 km/h 51% 0 mm 0.0 W/m2 CLR
05:29 12.7 °C 2.8 °C 1016.1 hPa South 14.5 km/h 32.2 km/h 51% 0 mm 0.0 W/m2 CLR
05:39 12.7 °C 3.1 °C 1016.1 hPa South 11.3 km/h 29 km/h 52% 0 mm 0.0 W/m2 CLR
05:49 12.7 °C 3.1 °C 1016.1 hPa South 12.9 km/h 38.6 km/h 52% 0 mm 0.0 W/m2 CLR
05:59 12.7 °C 3.1 °C 1016.1 hPa South 11.3 km/h 35.4 km/h 52% 0 mm 0.0 W/m2 CLR
06:09 12.6 °C 3.2 °C 1016.1 hPa South 12.9 km/h 27.4 km/h 53% 0 mm 0.0 W/m2 OVC
06:19 12.3 °C 3.1 °C 1016.1 hPa South 16.1 km/h 37 km/h 53% 0 mm 0.0 W/m2 OVC
06:29 12.3 °C 3.3 °C 1016.1 hPa South 11.3 km/h 24.1 km/h 54% 0 mm 7.0 W/m2 OVC
06:39 12.1 °C 3.1 °C 1016.1 hPa South 12.9 km/h 40.2 km/h 54% 0 mm 23.0 W/m2 OVC
06:49 11.8 °C 3.1 °C 1016.1 hPa South 14.5 km/h 40.2 km/h 55% 0 mm 18.0 W/m2 OVC
06:59 11.8 °C 3.3 °C 1016.1 hPa South 12.9 km/h 35.4 km/h 56% 0 mm 30.0 W/m2 OVC
07:09 11.8 °C 3.3 °C 1016.1 hPa South 11.3 km/h 25.7 km/h 56% 0 mm 44.0 W/m2 OVC
07:19 11.9 °C 3.4 °C 1015.8 hPa South 11.3 km/h 27.4 km/h 56% 0 mm 53.0 W/m2 OVC
07:29 11.9 °C 3.4 °C 1015.8 hPa South 12.9 km/h 29 km/h 56% 0 mm 56.0 W/m2 SCT
07:39 12.1 °C 3.6 °C 1015.8 hPa South 14.5 km/h 25.7 km/h 56% 0 mm 97.0 W/m2 CLR
07:49 12.2 °C 3.9 °C 1015.8 hPa South 19.3 km/h 41.8 km/h 57% 0 mm 77.0 W/m2 CLR
07:59 12.3 °C 4.1 °C 1015.8 hPa South 11.3 km/h 32.2 km/h 57% 0 mm 118.0 W/m2 CLR
08:09 12.5 °C 4.2 °C 1015.8 hPa South 16.1 km/h 38.6 km/h 57% 0 mm 125.0 W/m2 CLR
08:19 12.7 °C 4.6 °C 1015.8 hPa South 9.7 km/h 32.2 km/h 58% 0 mm 123.0 W/m2 CLR
08:29 12.9 °C 4.8 °C 1015.8 hPa South 16.1 km/h 29 km/h 58% 0 mm 413.0 W/m2 CLR
08:39 13.4 °C 5.3 °C 1015.5 hPa South 12.9 km/h 32.2 km/h 58% 0 mm 272.0 W/m2 CLR
08:49 13.6 °C 5.4 °C 1015.1 hPa South 12.9 km/h 33.8 km/h 58% 0 mm 176.0 W/m2 CLR
08:59 13.9 °C 5.8 °C 1015.1 hPa SSW 16.1 km/h 33.8 km/h 58% 0 mm 167.0 W/m2 CLR
09:09 14.3 °C 6.4 °C 1015.5 hPa South 20.9 km/h 37 km/h 59% 0 mm 127.0 W/m2 SCT
09:19 14.7 °C 6.7 °C 1015.5 hPa South 19.3 km/h 35.4 km/h 59% 0 mm 105.0 W/m2 SCT
09:29 14.7 °C 6.8 °C 1015.1 hPa South 19.3 km/h 35.4 km/h 59% 0 mm 181.0 W/m2 BKN
09:39 15 °C 7.1 °C 1015.1 hPa SSW 12.9 km/h 35.4 km/h 59% 0 mm 123.0 W/m2 SCT
09:49 15.2 °C 7.4 °C 1015.1 hPa SSW 14.5 km/h 35.4 km/h 60% 0 mm 288.0 W/m2 SCT
09:59 15.5 °C 7.8 °C 1015.1 hPa SSW 16.1 km/h 38.6 km/h 60% 0 mm 105.0 W/m2 BKN
10:09 15.6 °C 7.9 °C 1014.8 hPa SSW 12.9 km/h 33.8 km/h 60% 0 mm 128.0 W/m2 BKN
10:19 15.9 °C 8.2 °C 1014.8 hPa SSW 19.3 km/h 40.2 km/h 60% 0 mm 135.0 W/m2 BKN
10:29 16.2 °C 8.4 °C 1014.4 hPa South 19.3 km/h 38.6 km/h 60% 0 mm 195.0 W/m2 BKN
10:39 16.6 °C 8.8 °C 1014.4 hPa SSW 16.1 km/h 32.2 km/h 60% 0 mm 315.0 W/m2 SCT
10:49 17.1 °C 9.2 °C 1014.4 hPa SSW 14.5 km/h 33.8 km/h 60% 0 mm 190.0 W/m2 SCT
10:59 17.3 °C 9.5 °C 1014.4 hPa SSW 12.9 km/h 35.4 km/h 60% 0 mm 114.0 W/m2 BKN
11:09 17.7 °C 10.1 °C 1014.4 hPa SSW 14.5 km/h 41.8 km/h 61% 0 mm 216.0 W/m2 BKN
11:19 18.4 °C 10.5 °C 1014.1 hPa SSW 25.7 km/h 41.8 km/h 60% 0 mm 424.0 W/m2 SCT
11:29 18.3 °C 10.4 °C 1014.1 hPa SSW 20.9 km/h 43.5 km/h 60% 0 mm 151.0 W/m2 BKN
11:39 18.2 °C 10.5 °C 1013.8 hPa SSW 22.5 km/h 45.1 km/h 61% 0 mm 169.0 W/m2 BKN
11:49 18.2 °C 10.5 °C 1013.4 hPa SSW 19.3 km/h 41.8 km/h 61% 0 mm 109.0 W/m2 BKN
11:59 18.1 °C 10.7 °C 1013.4 hPa SSW 25.7 km/h 43.5 km/h 62% 0 mm 156.0 W/m2 BKN
12:09 18.2 °C 10.8 °C 1013.4 hPa SW 25.7 km/h 49.9 km/h 62% 0 mm 105.0 W/m2 BKN
12:19 18.3 °C 10.9 °C 1013.1 hPa SSW 14.5 km/h 41.8 km/h 62% 0 mm 193.0 W/m2 BKN
12:29 18.3 °C 10.9 °C 1013.1 hPa SSW 32.2 km/h 56.3 km/h 62% 0 mm 195.0 W/m2 BKN
12:39 18.3 °C 10.9 °C 1012.8 hPa SW 24.1 km/h 43.5 km/h 62% 0 mm 160.0 W/m2 BKN
12:49 18.3 °C 11.1 °C 1012.8 hPa SW 19.3 km/h 40.2 km/h 63% 0 mm 214.0 W/m2 BKN
12:59 18.6 °C 11.1 °C 1012.4 hPa SSW 20.9 km/h 41.8 km/h 62% 0 mm 234.0 W/m2 BKN
13:09 19 °C 11.3 °C 1012.1 hPa SSW 20.9 km/h 37 km/h 61% 0 mm 220.0 W/m2 BKN
13:19 19.3 °C 11.3 °C 1012.1 hPa SW 32.2 km/h 53.1 km/h 60% 0 mm 439.0 W/m2 BKN
13:29 19.5 °C 11.5 °C 1012.1 hPa SSW 20.9 km/h 49.9 km/h 60% 0 mm 206.0 W/m2 BKN
13:39 19.4 °C 11.7 °C 1012.1 hPa SSW 19.3 km/h 56.3 km/h 61% 0 mm 185.0 W/m2 BKN
13:49 19.4 °C 11.4 °C 1012.1 hPa SSW 29 km/h 53.1 km/h 60% 0 mm 190.0 W/m2 BKN
13:59 19.6 °C 11.6 °C 1012.1 hPa SSW 20.9 km/h 35.4 km/h 60% 0 mm 232.0 W/m2 BKN
14:09 19.8 °C 11.8 °C 1011.7 hPa SSW 14.5 km/h 40.2 km/h 60% 0 mm 193.0 W/m2 BKN
14:19 19.8 °C 11.6 °C 1011.7 hPa SSW 25.7 km/h 38.6 km/h 59% 0 mm 188.0 W/m2 BKN
14:29 19.5 °C 11.3 °C 1012.1 hPa SSW 24.1 km/h 48.3 km/h 59% 0 mm 111.0 W/m2 BKN
14:39 19.2 °C 11.3 °C 1011.7 hPa SSW 20.9 km/h 45.1 km/h 60% 0 mm 155.0 W/m2 BKN
14:49 19.4 °C 11.2 °C 1011.4 hPa SSW 27.4 km/h 40.2 km/h 59% 0 mm 160.0 W/m2 BKN
14:59 19.3 °C 11.4 °C 1011.4 hPa SSW 22.5 km/h 48.3 km/h 60% 0 mm 134.0 W/m2 BKN
15:09 19.1 °C 11.4 °C 1011.4 hPa SSW 14.5 km/h 38.6 km/h 61% 0 mm 111.0 W/m2 BKN
15:19 18.9 °C 11.3 °C 1011.1 hPa SSW 32.2 km/h 49.9 km/h 61% 0 mm 132.0 W/m2 BKN
15:29 18.9 °C 11.5 °C 1011.1 hPa SSW 22.5 km/h 43.5 km/h 62% 0 mm 83.0 W/m2 BKN
15:39 18.9 °C 11.5 °C 1011.1 hPa SSW 32.2 km/h 46.7 km/h 62% 0 mm 49.0 W/m2 BKN
15:49 18.9 °C 11.5 °C 1011.1 hPa SSW 25.7 km/h 41.8 km/h 62% 0 mm 35.0 W/m2 BKN
15:59 18.9 °C 11.4 °C 1011.4 hPa South 16.1 km/h 40.2 km/h 62% 0 mm 33.0 W/m2 BKN
16:09 18.7 °C 11.5 °C 1011.4 hPa SSW 19.3 km/h 43.5 km/h 63% 0 mm 30.0 W/m2 BKN
16:19 18.5 °C 11.3 °C 1011.4 hPa SSW 25.7 km/h 46.7 km/h 63% 0 mm 19.0 W/m2 BKN
16:29 18.4 °C 11.3 °C 1011.4 hPa SSW 22.5 km/h 40.2 km/h 63% 0 mm 37.0 W/m2 BKN
16:39 18.3 °C 11.3 °C 1011.4 hPa SSW 14.5 km/h 38.6 km/h 64% 0 mm 23.0 W/m2 BKN
16:49 18.1 °C 11.2 °C 1011.4 hPa SSW 16.1 km/h 33.8 km/h 64% 0 mm 18.0 W/m2 BKN
16:59 17.9 °C 11.3 °C 1011.1 hPa SSW 20.9 km/h 33.8 km/h 65% 0 mm 25.0 W/m2 BKN
17:09 17.9 °C 11.3 °C 1011.1 hPa SSW 11.3 km/h 37 km/h 65% 0 mm 16.0 W/m2 BKN
17:19 18 °C 11.1 °C 1011.7 hPa SSW 25.7 km/h 56.3 km/h 64% 0 mm 7.0 W/m2 OVC
17:29 17.9 °C 11.3 °C 1011.4 hPa SSW 14.5 km/h 35.4 km/h 65% 0 mm 0.0 W/m2 OVC
17:39 17.8 °C 10.9 °C 1011.7 hPa South 19.3 km/h 46.7 km/h 64% 0 mm 0.0 W/m2 OVC
17:49 17.8 °C 11.2 °C 1011.7 hPa South 19.3 km/h 35.4 km/h 65% 0 mm 0.0 W/m2 OVC
17:59 17.9 °C 11.3 °C 1011.7 hPa SSW 14.5 km/h 38.6 km/h 65% 0 mm 0.0 W/m2 OVC
18:09 17.9 °C 11.3 °C 1011.4 hPa SSW 11.3 km/h 43.5 km/h 65% 0 mm 0.0 W/m2 CLR
18:19 17.9 °C 11.2 °C 1011.4 hPa SSW 22.5 km/h 40.2 km/h 65% 0 mm 0.0 W/m2 CLR
18:29 17.9 °C 11.3 °C 1011.7 hPa SSW 16.1 km/h 43.5 km/h 65% 0 mm 0.0 W/m2 CLR
18:39 17.9 °C 11.2 °C 1011.4 hPa SSW 16.1 km/h 33.8 km/h 65% 0 mm 0.0 W/m2 CLR
18:49 17.9 °C 11.2 °C 1011.7 hPa SSW 19.3 km/h 37 km/h 65% 0 mm 0.0 W/m2 CLR
18:59 17.8 °C 11.4 °C 1011.4 hPa SSW 16.1 km/h 32.2 km/h 66% 0 mm 0.0 W/m2 CLR
19:09 17.8 °C 11.3 °C 1011.4 hPa SSW 19.3 km/h 37 km/h 66% 0 mm 0.0 W/m2 CLR
19:19 17.8 °C 11.6 °C 1011.4 hPa SSW 20.9 km/h 45.1 km/h 67% 0 mm 0.0 W/m2 CLR
19:29 17.8 °C 11.6 °C 1011.4 hPa SSW 22.5 km/h 38.6 km/h 67% 0 mm 0.0 W/m2 CLR
19:39 17.8 °C 11.6 °C 1011.4 hPa South 16.1 km/h 33.8 km/h 67% 0 mm 0.0 W/m2 CLR
19:49 17.7 °C 11.7 °C 1011.4 hPa SSW 14.5 km/h 35.4 km/h 68% 0 mm 0.0 W/m2 CLR
19:59 17.7 °C 11.7 °C 1011.4 hPa SSW 16.1 km/h 40.2 km/h 68% 0 mm 0.0 W/m2 CLR
20:09 17.7 °C 11.7 °C 1011.4 hPa SSW 14.5 km/h 38.6 km/h 68% 0 mm 0.0 W/m2 CLR
20:19 17.6 °C 11.6 °C 1011.4 hPa South 14.5 km/h 32.2 km/h 68% 0 mm 0.0 W/m2 CLR
20:29 17.6 °C 11.6 °C 1011.1 hPa SSW 19.3 km/h 35.4 km/h 68% 0 mm 0.0 W/m2 CLR
20:39 17.5 °C 11.5 °C 1011.1 hPa SSW 16.1 km/h 32.2 km/h 68% 0 mm 0.0 W/m2 CLR
20:49 17.4 °C 11.5 °C 1011.1 hPa SSW 19.3 km/h 33.8 km/h 68% 0 mm 0.0 W/m2 CLR
20:59 17.4 °C 11.6 °C 1011.1 hPa SSW 12.9 km/h 27.4 km/h 69% 0 mm 0.0 W/m2 CLR
21:09 17.3 °C 11.6 °C 1010.7 hPa South 14.5 km/h 29 km/h 69% 0 mm 0.0 W/m2 CLR
21:19 17.3 °C 11.5 °C 1010.7 hPa SSW 22.5 km/h 35.4 km/h 69% 0 mm 0.0 W/m2 CLR
21:29 17.2 °C 11.4 °C 1010.7 hPa SSW 12.9 km/h 33.8 km/h 69% 0 mm 0.0 W/m2 CLR
21:39 17.2 °C 11.6 °C 1010.4 hPa SSW 19.3 km/h 33.8 km/h 70% 0 mm 0.0 W/m2 CLR
21:49 17.2 °C 11.7 °C 1010.4 hPa SSW 14.5 km/h 38.6 km/h 70% 0 mm 0.0 W/m2 CLR
21:59 17.1 °C 12 °C 1010 hPa SSW 16.1 km/h 35.4 km/h 72% 0 mm 0.0 W/m2 CLR
22:09 16.9 °C 11.7 °C 1010 hPa SSW 16.1 km/h 32.2 km/h 71% 0 mm 0.0 W/m2 CLR
22:19 16.9 °C 11.7 °C 1009.7 hPa SSW 14.5 km/h 27.4 km/h 71% 0 mm 0.0 W/m2 CLR
22:29 16.7 °C 12.1 °C 1009.7 hPa SSW 19.3 km/h 32.2 km/h 74% 0 mm 0.0 W/m2 CLR
22:39 16.5 °C 12.1 °C 1009.4 hPa South 11.3 km/h 29 km/h 75% 0 mm 0.0 W/m2 CLR
22:49 16.3 °C 12.4 °C 1009.4 hPa SSW 16.1 km/h 37 km/h 78% 0 mm 0.0 W/m2 CLR
22:59 16.1 °C 12.2 °C 1009.4 hPa SSW 14.5 km/h 35.4 km/h 78% 0 mm 0.0 W/m2 CLR
23:09 16.3 °C 12.3 °C 1009.4 hPa SSW 14.5 km/h 32.2 km/h 77% 0 mm 0.0 W/m2 CLR
23:19 16.4 °C 12.2 °C 1009.4 hPa SSW 14.5 km/h 35.4 km/h 76% 0 mm 0.0 W/m2 CLR
23:29 16.4 °C 12.4 °C 1009.7 hPa SSW 22.5 km/h 38.6 km/h 77% 0 mm 0.0 W/m2 CLR
23:39 16.1 °C 12.7 °C 1009.4 hPa SSW 14.5 km/h 41.8 km/h 80% 0 mm 0.0 W/m2 CLR
23:49 16.1 °C 12.8 °C 1009.4 hPa SSW 20.9 km/h 38.6 km/h 81% 0 mm 0.0 W/m2 CLR
23:59 16.1 °C 12.8 °C 1009.4 hPa SSW 16.1 km/h 38.6 km/h 81% 0 mm 0.0 W/m2 CLR
jolietwx - Weather
Compliments of Weather Underground - 1.25 mb